Terminal Aerodrome Forecast
Issued by NWS

Home | Current Version | Previous Version | Text Only | Print | Product List | Glossary On
Versions: 1 2 3 4 5 6 7 8 9 10 11 12 13 14
334
FTUS44 KBMX 300520
TAFTCL
TAF
KTCL 300520Z 3006/0106 31005KT P6SM SCT050
      TEMPO 3012/3016 SCT025
     FM301600 30006KT P6SM SCT080
     FM010300 27002KT P6SM SKC=

USA.gov is the U.S. government's official web portal to all federal, state and local government web resources and services.